sensor_id;sensor_type;location;lat;lon;timestamp;pressure;altitude;pressure_sealevel;temperature
19102;BMP280;9683;49.028;12.064;2023-01-31T00:02:25;97668.91;;;4.76
19102;BMP280;9683;49.028;12.064;2023-01-31T00:04:52;97667.00;;;4.70
19102;BMP280;9683;49.028;12.064;2023-01-31T00:07:20;97676.34;;;4.73
19102;BMP280;9683;49.028;12.064;2023-01-31T00:09:47;97684.25;;;4.73
19102;BMP280;9683;49.028;12.064;2023-01-31T00:12:13;97696.28;;;4.75
19102;BMP280;9683;49.028;12.064;2023-01-31T00:14:40;97696.28;;;4.75
19102;BMP280;9683;49.028;12.064;2023-01-31T00:17:07;97684.88;;;4.83
19102;BMP280;9683;49.028;12.064;2023-01-31T00:19:33;97674.94;;;4.85
19102;BMP280;9683;49.028;12.064;2023-01-31T00:22:00;97707.59;;;4.84
19102;BMP280;9683;49.028;12.064;2023-01-31T00:24:29;97692.88;;;4.89
19102;BMP280;9683;49.028;12.064;2023-01-31T00:26:55;97690.75;;;4.85
19102;BMP280;9683;49.028;12.064;2023-01-31T00:29:22;97688.50;;;4.82
19102;BMP280;9683;49.028;12.064;2023-01-31T00:31:49;97687.84;;;4.80
19102;BMP280;9683;49.028;12.064;2023-01-31T00:34:17;97694.44;;;4.76
19102;BMP280;9683;49.028;12.064;2023-01-31T00:36:43;97698.09;;;4.75
19102;BMP280;9683;49.028;12.064;2023-01-31T00:39:10;97698.72;;;4.77
19102;BMP280;9683;49.028;12.064;2023-01-31T00:41:38;97695.09;;;4.78
19102;BMP280;9683;49.028;12.064;2023-01-31T00:44:05;97706.31;;;4.80
19102;BMP280;9683;49.028;12.064;2023-01-31T00:46:32;97691.66;;;4.77
19102;BMP280;9683;49.028;12.064;2023-01-31T00:48:59;97700.44;;;4.70
19102;BMP280;9683;49.028;12.064;2023-01-31T00:51:26;97684.72;;;4.76
19102;BMP280;9683;49.028;12.064;2023-01-31T00:53:53;97695.47;;;4.75
19102;BMP280;9683;49.028;12.064;2023-01-31T00:56:21;97704.00;;;4.77
19102;BMP280;9683;49.028;12.064;2023-01-31T00:58:50;97704.47;;;4.80
19102;BMP280;9683;49.028;12.064;2023-01-31T01:01:19;97702.94;;;4.86
19102;BMP280;9683;49.028;12.064;2023-01-31T01:03:47;97703.47;;;4.81
19102;BMP280;9683;49.028;12.064;2023-01-31T01:06:14;97696.22;;;4.83
19102;BMP280;9683;49.028;12.064;2023-01-31T01:08:41;97707.09;;;4.80
19102;BMP280;9683;49.028;12.064;2023-01-31T01:11:11;97699.38;;;4.79
19102;BMP280;9683;49.028;12.064;2023-01-31T01:13:38;97698.56;;;4.78
19102;BMP280;9683;49.028;12.064;2023-01-31T01:16:07;97691.28;;;4.80
19102;BMP280;9683;49.028;12.064;2023-01-31T01:18:34;97697.06;;;4.76
19102;BMP280;9683;49.028;12.064;2023-01-31T01:21:06;97692.94;;;4.81
19102;BMP280;9683;49.028;12.064;2023-01-31T01:23:34;97721.44;;;4.78
19102;BMP280;9683;49.028;12.064;2023-01-31T01:26:00;97714.38;;;4.78
19102;BMP280;9683;49.028;12.064;2023-01-31T01:28:27;97710.44;;;4.74
19102;BMP280;9683;49.028;12.064;2023-01-31T01:30:53;97722.44;;;4.77
19102;BMP280;9683;49.028;12.064;2023-01-31T01:33:21;97718.00;;;4.77
19102;BMP280;9683;49.028;12.064;2023-01-31T01:35:48;97708.50;;;4.68
19102;BMP280;9683;49.028;12.064;2023-01-31T01:38:15;97720.06;;;4.67
19102;BMP280;9683;49.028;12.064;2023-01-31T01:40:42;97711.13;;;4.68
19102;BMP280;9683;49.028;12.064;2023-01-31T01:43:10;97718.03;;;4.69
19102;BMP280;9683;49.028;12.064;2023-01-31T01:45:37;97724.50;;;4.67
19102;BMP280;9683;49.028;12.064;2023-01-31T01:48:05;97719.69;;;4.70
19102;BMP280;9683;49.028;12.064;2023-01-31T01:50:38;97707.97;;;4.73
19102;BMP280;9683;49.028;12.064;2023-01-31T01:53:09;97735.16;;;4.73
19102;BMP280;9683;49.028;12.064;2023-01-31T01:55:38;97731.25;;;4.61
19102;BMP280;9683;49.028;12.064;2023-01-31T01:58:09;97704.47;;;4.57
19102;BMP280;9683;49.028;12.064;2023-01-31T02:00:36;97711.06;;;4.53
19102;BMP280;9683;49.028;12.064;2023-01-31T02:03:05;97729.97;;;4.57
19102;BMP280;9683;49.028;12.064;2023-01-31T02:05:35;97714.31;;;4.55
19102;BMP280;9683;49.028;12.064;2023-01-31T02:08:03;97720.72;;;4.61
19102;BMP280;9683;49.028;12.064;2023-01-31T02:10:32;97724.34;;;4.60
19102;BMP280;9683;49.028;12.064;2023-01-31T02:13:00;97722.03;;;4.65
19102;BMP280;9683;49.028;12.064;2023-01-31T02:15:28;97723.72;;;4.58
19102;BMP280;9683;49.028;12.064;2023-01-31T02:17:55;97734.53;;;4.63
19102;BMP280;9683;49.028;12.064;2023-01-31T02:20:36;97729.97;;;4.57
19102;BMP280;9683;49.028;12.064;2023-01-31T02:23:26;97743.69;;;4.44
19102;BMP280;9683;49.028;12.064;2023-01-31T02:26:33;97728.72;;;4.45
19102;BMP280;9683;49.028;12.064;2023-01-31T02:29:22;97738.06;;;4.47
19102;BMP280;9683;49.028;12.064;2023-01-31T02:32:21;97743.19;;;4.49
19102;BMP280;9683;49.028;12.064;2023-01-31T02:34:56;97754.69;;;4.48
19102;BMP280;9683;49.028;12.064;2023-01-31T02:37:36;97752.59;;;4.43
19102;BMP280;9683;49.028;12.064;2023-01-31T02:40:14;97780.88;;;4.49
19102;BMP280;9683;49.028;12.064;2023-01-31T02:42:50;97747.66;;;4.40
19102;BMP280;9683;49.028;12.064;2023-01-31T02:45:26;97765.44;;;4.38
19102;BMP280;9683;49.028;12.064;2023-01-31T02:48:05;97760.47;;;4.43
19102;BMP280;9683;49.028;12.064;2023-01-31T02:50:37;97764.59;;;4.46
19102;BMP280;9683;49.028;12.064;2023-01-31T02:53:06;97778.91;;;4.43
19102;BMP280;9683;49.028;12.064;2023-01-31T02:55:36;97770.03;;;4.44
19102;BMP280;9683;49.028;12.064;2023-01-31T02:58:23;97785.69;;;4.46
19102;BMP280;9683;49.028;12.064;2023-01-31T03:00:54;97792.41;;;4.48
19102;BMP280;9683;49.028;12.064;2023-01-31T03:03:26;97797.19;;;4.45
19102;BMP280;9683;49.028;12.064;2023-01-31T03:09:01;97776.09;;;4.53
19102;BMP280;9683;49.028;12.064;2023-01-31T03:11:36;97773.94;;;4.56
19102;BMP280;9683;49.028;12.064;2023-01-31T03:14:11;97782.81;;;4.55
19102;BMP280;9683;49.028;12.064;2023-01-31T03:16:47;97786.78;;;4.51
19102;BMP280;9683;49.028;12.064;2023-01-31T03:19:38;97789.38;;;4.59
19102;BMP280;9683;49.028;12.064;2023-01-31T03:22:11;97796.19;;;4.54
19102;BMP280;9683;49.028;12.064;2023-01-31T03:24:41;97801.44;;;4.54
19102;BMP280;9683;49.028;12.064;2023-01-31T03:27:09;97806.75;;;4.46
19102;BMP280;9683;49.028;12.064;2023-01-31T03:29:37;97824.34;;;4.45
19102;BMP280;9683;49.028;12.064;2023-01-31T03:32:07;97798.19;;;4.44
19102;BMP280;9683;49.028;12.064;2023-01-31T03:34:37;97815.97;;;4.42
19102;BMP280;9683;49.028;12.064;2023-01-31T03:37:10;97826.31;;;4.43
19102;BMP280;9683;49.028;12.064;2023-01-31T03:39:42;97823.22;;;4.40
19102;BMP280;9683;49.028;12.064;2023-01-31T03:42:15;97817.63;;;4.35
19102;BMP280;9683;49.028;12.064;2023-01-31T03:44:48;97829.66;;;4.37
19102;BMP280;9683;49.028;12.064;2023-01-31T03:47:22;97815.66;;;4.37
19102;BMP280;9683;49.028;12.064;2023-01-31T03:49:53;97814.47;;;4.39
19102;BMP280;9683;49.028;12.064;2023-01-31T03:52:25;97820.09;;;4.36
19102;BMP280;9683;49.028;12.064;2023-01-31T03:54:57;97819.28;;;4.36
19102;BMP280;9683;49.028;12.064;2023-01-31T03:57:30;97831.78;;;4.34
19102;BMP280;9683;49.028;12.064;2023-01-31T03:59:59;97821.75;;;4.37
19102;BMP280;9683;49.028;12.064;2023-01-31T04:02:32;97850.72;;;4.37
19102;BMP280;9683;49.028;12.064;2023-01-31T04:05:05;97865.50;;;4.38
19102;BMP280;9683;49.028;12.064;2023-01-31T04:07:32;97832.78;;;4.33
19102;BMP280;9683;49.028;12.064;2023-01-31T04:09:59;97840.69;;;4.33
19102;BMP280;9683;49.028;12.064;2023-01-31T04:12:26;97849.72;;;4.30
19102;BMP280;9683;49.028;12.064;2023-01-31T04:14:52;97855.00;;;4.30
19102;BMP280;9683;49.028;12.064;2023-01-31T04:17:19;97857.31;;;4.33
19102;BMP280;9683;49.028;12.064;2023-01-31T04:19:46;97861.91;;;4.23
19102;BMP280;9683;49.028;12.064;2023-01-31T04:22:14;97855.19;;;4.29
19102;BMP280;9683;49.028;12.064;2023-01-31T04:24:40;97866.34;;;4.31
19102;BMP280;9683;49.028;12.064;2023-01-31T04:27:07;97864.88;;;4.28
19102;BMP280;9683;49.028;12.064;2023-01-31T04:29:34;97866.00;;;4.34
19102;BMP280;9683;49.028;12.064;2023-01-31T04:32:00;97897.13;;;4.30
19102;BMP280;9683;49.028;12.064;2023-01-31T04:34:27;97877.34;;;4.34
19102;BMP280;9683;49.028;12.064;2023-01-31T04:36:54;97872.09;;;4.26
19102;BMP280;9683;49.028;12.064;2023-01-31T04:39:22;97871.13;;;4.27
19102;BMP280;9683;49.028;12.064;2023-01-31T04:41:48;97877.72;;;4.31
19102;BMP280;9683;49.028;12.064;2023-01-31T04:44:15;97880.19;;;4.33
19102;BMP280;9683;49.028;12.064;2023-01-31T04:46:42;97885.44;;;4.33
19102;BMP280;9683;49.028;12.064;2023-01-31T04:49:10;97887.09;;;4.26
19102;BMP280;9683;49.028;12.064;2023-01-31T04:51:37;97896.00;;;4.17
19102;BMP280;9683;49.028;12.064;2023-01-31T04:54:04;97883.13;;;4.22
19102;BMP280;9683;49.028;12.064;2023-01-31T04:56:32;97901.91;;;4.27
19102;BMP280;9683;49.028;12.064;2023-01-31T04:58:59;97891.88;;;4.22
19102;BMP280;9683;49.028;12.064;2023-01-31T05:01:26;97885.94;;;4.28
19102;BMP280;9683;49.028;12.064;2023-01-31T05:03:53;97892.69;;;4.31
19102;BMP280;9683;49.028;12.064;2023-01-31T05:06:20;97870.97;;;4.29
19102;BMP280;9683;49.028;12.064;2023-01-31T05:08:46;97890.72;;;4.33
19102;BMP280;9683;49.028;12.064;2023-01-31T05:11:13;97878.38;;;4.33
19102;BMP280;9683;49.028;12.064;2023-01-31T05:13:41;97877.34;;;4.34
19102;BMP280;9683;49.028;12.064;2023-01-31T05:16:10;97876.03;;;4.38
19102;BMP280;9683;49.028;12.064;2023-01-31T05:18:37;97873.91;;;4.34
19102;BMP280;9683;49.028;12.064;2023-01-31T05:21:05;97879.34;;;4.32
19102;BMP280;9683;49.028;12.064;2023-01-31T05:23:32;97887.06;;;4.34
19102;BMP280;9683;49.028;12.064;2023-01-31T05:25:59;97890.03;;;4.31
19102;BMP280;9683;49.028;12.064;2023-01-31T05:28:26;97880.00;;;4.34
19102;BMP280;9683;49.028;12.064;2023-01-31T05:31:00;97901.53;;;4.38
19102;BMP280;9683;49.028;12.064;2023-01-31T05:33:27;97874.22;;;4.39
19102;BMP280;9683;49.028;12.064;2023-01-31T05:35:55;97879.50;;;4.39
19102;BMP280;9683;49.028;12.064;2023-01-31T05:38:22;97879.34;;;4.40
19102;BMP280;9683;49.028;12.064;2023-01-31T05:40:49;97882.28;;;4.45
19102;BMP280;9683;49.028;12.064;2023-01-31T05:43:16;97884.75;;;4.47
19102;BMP280;9683;49.028;12.064;2023-01-31T05:45:43;97863.38;;;4.42
19102;BMP280;9683;49.028;12.064;2023-01-31T05:48:12;97856.78;;;4.46
19102;BMP280;9683;49.028;12.064;2023-01-31T05:50:38;97861.03;;;4.47
19102;BMP280;9683;49.028;12.064;2023-01-31T05:53:05;97873.38;;;4.46
19102;BMP280;9683;49.028;12.064;2023-01-31T05:55:33;97864.97;;;4.51
19102;BMP280;9683;49.028;12.064;2023-01-31T05:57:59;97879.16;;;4.50
19102;BMP280;9683;49.028;12.064;2023-01-31T06:00:26;97874.69;;;4.50
19102;BMP280;9683;49.028;12.064;2023-01-31T06:02:56;97882.59;;;4.50
19102;BMP280;9683;49.028;12.064;2023-01-31T06:05:24;97888.53;;;4.52
19102;BMP280;9683;49.028;12.064;2023-01-31T06:07:50;97889.19;;;4.46
19102;BMP280;9683;49.028;12.064;2023-01-31T06:10:17;97884.44;;;4.50
19102;BMP280;9683;49.028;12.064;2023-01-31T06:12:44;97888.53;;;4.52
19102;BMP280;9683;49.028;12.064;2023-01-31T06:15:10;97897.09;;;4.54
19102;BMP280;9683;49.028;12.064;2023-01-31T06:17:37;97891.81;;;4.54
19102;BMP280;9683;49.028;12.064;2023-01-31T06:20:04;97896.59;;;4.51
19102;BMP280;9683;49.028;12.064;2023-01-31T06:22:32;97884.94;;;4.45
19102;BMP280;9683;49.028;12.064;2023-01-31T06:24:59;97895.97;;;4.41
19102;BMP280;9683;49.028;12.064;2023-01-31T06:27:25;97911.75;;;4.41
19102;BMP280;9683;49.028;12.064;2023-01-31T06:29:52;97911.91;;;4.39
19102;BMP280;9683;49.028;12.064;2023-01-31T06:32:19;97916.22;;;4.40
19102;BMP280;9683;49.028;12.064;2023-01-31T06:34:45;97922.28;;;4.41
19102;BMP280;9683;49.028;12.064;2023-01-31T06:37:12;97928.53;;;4.40
19102;BMP280;9683;49.028;12.064;2023-01-31T06:39:40;97920.66;;;4.40
19102;BMP280;9683;49.028;12.064;2023-01-31T06:42:06;97923.13;;;4.41
19102;BMP280;9683;49.028;12.064;2023-01-31T06:44:33;97920.00;;;4.46
19102;BMP280;9683;49.028;12.064;2023-01-31T06:46:59;97921.94;;;4.52
19102;BMP280;9683;49.028;12.064;2023-01-31T06:49:26;97919.16;;;4.45
19102;BMP280;9683;49.028;12.064;2023-01-31T06:51:53;97914.72;;;4.46
19102;BMP280;9683;49.028;12.064;2023-01-31T06:54:19;97916.53;;;4.45
19102;BMP280;9683;49.028;12.064;2023-01-31T06:56:47;97923.13;;;4.41
19102;BMP280;9683;49.028;12.064;2023-01-31T06:59:14;97920.81;;;4.38
19102;BMP280;9683;49.028;12.064;2023-01-31T07:01:40;97926.91;;;4.39
19102;BMP280;9683;49.028;12.064;2023-01-31T07:04:07;97929.38;;;4.40
19102;BMP280;9683;49.028;12.064;2023-01-31T07:06:34;97938.59;;;4.44
19102;BMP280;9683;49.028;12.064;2023-01-31T07:09:00;97943.03;;;4.44
19102;BMP280;9683;49.028;12.064;2023-01-31T07:11:27;97959.31;;;4.55
19102;BMP280;9683;49.028;12.064;2023-01-31T07:13:55;97955.03;;;4.63
19102;BMP280;9683;49.028;12.064;2023-01-31T07:16:21;97960.59;;;4.68
19102;BMP280;9683;49.028;12.064;2023-01-31T07:18:50;97967.84;;;4.74
19102;BMP280;9683;49.028;12.064;2023-01-31T07:21:17;97962.91;;;4.71
19102;BMP280;9683;49.028;12.064;2023-01-31T07:23:44;97958.97;;;4.67
19102;BMP280;9683;49.028;12.064;2023-01-31T07:26:10;97970.66;;;4.64
19102;BMP280;9683;49.028;12.064;2023-01-31T07:28:37;97960.78;;;4.66
19102;BMP280;9683;49.028;12.064;2023-01-31T07:31:05;97956.97;;;4.69
19102;BMP280;9683;49.028;12.064;2023-01-31T07:33:35;97956.16;;;4.68
19102;BMP280;9683;49.028;12.064;2023-01-31T07:36:01;97953.19;;;4.71
19102;BMP280;9683;49.028;12.064;2023-01-31T07:38:29;97955.84;;;4.71
19102;BMP280;9683;49.028;12.064;2023-01-31T07:40:57;97954.66;;;4.74
19102;BMP280;9683;49.028;12.064;2023-01-31T07:43:24;97948.25;;;4.68
19102;BMP280;9683;49.028;12.064;2023-01-31T07:45:50;97946.09;;;4.72
19102;BMP280;9683;49.028;12.064;2023-01-31T07:48:18;97945.94;;;4.73
19102;BMP280;9683;49.028;12.064;2023-01-31T07:50:48;97944.94;;;4.74
19102;BMP280;9683;49.028;12.064;2023-01-31T07:53:15;97947.41;;;4.76
19102;BMP280;9683;49.028;12.064;2023-01-31T07:55:41;97950.69;;;4.78
19102;BMP280;9683;49.028;12.064;2023-01-31T07:58:11;97945.28;;;4.79
19102;BMP280;9683;49.028;12.064;2023-01-31T08:00:38;97948.19;;;4.84
19102;BMP280;9683;49.028;12.064;2023-01-31T08:03:25;97952.69;;;4.84
19102;BMP280;9683;49.028;12.064;2023-01-31T08:05:58;97962.06;;;4.78
19102;BMP280;9683;49.028;12.064;2023-01-31T08:08:25;97958.44;;;4.79
19102;BMP280;9683;49.028;12.064;2023-01-31T08:10:51;97950.19;;;4.82
19102;BMP280;9683;49.028;12.064;2023-01-31T08:13:18;97957.13;;;4.83
19102;BMP280;9683;49.028;12.064;2023-01-31T08:15:44;97947.69;;;4.89
19102;BMP280;9683;49.028;12.064;2023-01-31T08:18:11;97948.84;;;4.94
19102;BMP280;9683;49.028;12.064;2023-01-31T08:20:39;97947.03;;;4.95
19102;BMP280;9683;49.028;12.064;2023-01-31T08:23:05;97951.13;;;4.97
19102;BMP280;9683;49.028;12.064;2023-01-31T08:25:32;97954.47;;;4.91
19102;BMP280;9683;49.028;12.064;2023-01-31T08:27:59;97956.28;;;4.91
19102;BMP280;9683;49.028;12.064;2023-01-31T08:30:26;97975.34;;;4.93
19102;BMP280;9683;49.028;12.064;2023-01-31T08:32:53;97980.81;;;4.91
19102;BMP280;9683;49.028;12.064;2023-01-31T08:35:20;97987.91;;;4.91
19102;BMP280;9683;49.028;12.064;2023-01-31T08:37:48;97972.72;;;4.93
19102;BMP280;9683;49.028;12.064;2023-01-31T08:40:14;97986.91;;;4.92
19102;BMP280;9683;49.028;12.064;2023-01-31T08:42:41;97972.41;;;4.96
19102;BMP280;9683;49.028;12.064;2023-01-31T08:45:08;97985.91;;;4.93
19102;BMP280;9683;49.028;12.064;2023-01-31T08:47:35;97977.81;;;5.02
19102;BMP280;9683;49.028;12.064;2023-01-31T08:50:03;98003.19;;;5.03
19102;BMP280;9683;49.028;12.064;2023-01-31T08:52:31;97981.28;;;5.03
19102;BMP280;9683;49.028;12.064;2023-01-31T08:55:01;97989.19;;;5.03
19102;BMP280;9683;49.028;12.064;2023-01-31T08:57:28;97986.91;;;5.00
19102;BMP280;9683;49.028;12.064;2023-01-31T08:59:54;97995.63;;;5.00
19102;BMP280;9683;49.028;12.064;2023-01-31T09:02:21;97992.16;;;5.00
19102;BMP280;9683;49.028;12.064;2023-01-31T09:04:48;97990.00;;;5.03
19102;BMP280;9683;49.028;12.064;2023-01-31T09:07:14;98005.66;;;5.05
19102;BMP280;9683;49.028;12.064;2023-01-31T09:09:46;98004.81;;;5.13
19102;BMP280;9683;49.028;12.064;2023-01-31T09:12:14;98002.00;;;5.14
19102;BMP280;9683;49.028;12.064;2023-01-31T09:14:40;97998.38;;;5.15
19102;BMP280;9683;49.028;12.064;2023-01-31T09:17:07;97996.25;;;5.11
19102;BMP280;9683;49.028;12.064;2023-01-31T09:19:35;97988.84;;;5.06
19102;BMP280;9683;49.028;12.064;2023-01-31T09:22:01;97995.13;;;5.05
19102;BMP280;9683;49.028;12.064;2023-01-31T09:24:28;97995.44;;;5.02
19102;BMP280;9683;49.028;12.064;2023-01-31T09:26:54;97991.16;;;5.01
19102;BMP280;9683;49.028;12.064;2023-01-31T09:29:22;97985.72;;;5.02
19102;BMP280;9683;49.028;12.064;2023-01-31T09:31:50;97994.78;;;5.08
19102;BMP280;9683;49.028;12.064;2023-01-31T09:34:17;97978.63;;;5.11
19102;BMP280;9683;49.028;12.064;2023-01-31T09:36:43;97969.41;;;5.07
19102;BMP280;9683;49.028;12.064;2023-01-31T09:39:10;97983.88;;;5.11
19102;BMP280;9683;49.028;12.064;2023-01-31T09:41:41;97977.13;;;5.17
19102;BMP280;9683;49.028;12.064;2023-01-31T09:44:11;97980.41;;;5.19
19102;BMP280;9683;49.028;12.064;2023-01-31T09:46:42;97978.13;;;5.07
19102;BMP280;9683;49.028;12.064;2023-01-31T09:49:15;97979.47;;;5.03
19102;BMP280;9683;49.028;12.064;2023-01-31T09:51:44;97976.00;;;5.03
19102;BMP280;9683;49.028;12.064;2023-01-31T09:54:19;97971.22;;;5.06
19102;BMP280;9683;49.028;12.064;2023-01-31T09:56:53;97986.72;;;5.01
19102;BMP280;9683;49.028;12.064;2023-01-31T09:59:28;97998.06;;;5.02
19102;BMP280;9683;49.028;12.064;2023-01-31T10:02:00;97982.59;;;5.07
19102;BMP280;9683;49.028;12.064;2023-01-31T10:04:39;97984.38;;;5.15
19102;BMP280;9683;49.028;12.064;2023-01-31T10:07:12;97979.91;;;5.15
19102;BMP280;9683;49.028;12.064;2023-01-31T10:09:43;97980.91;;;5.14
19102;BMP280;9683;49.028;12.064;2023-01-31T10:12:14;97973.34;;;5.11
19102;BMP280;9683;49.028;12.064;2023-01-31T10:14:46;97978.25;;;5.14
19102;BMP280;9683;49.028;12.064;2023-01-31T10:17:19;97984.22;;;5.08
19102;BMP280;9683;49.028;12.064;2023-01-31T10:19:52;97977.97;;;5.01
19102;BMP280;9683;49.028;12.064;2023-01-31T10:22:25;97972.53;;;5.02
19102;BMP280;9683;49.028;12.064;2023-01-31T10:24:57;97980.28;;;5.04
19102;BMP280;9683;49.028;12.064;2023-01-31T10:27:39;97982.75;;;5.05
19102;BMP280;9683;49.028;12.064;2023-01-31T10:30:15;97965.47;;;5.03
19102;BMP280;9683;49.028;12.064;2023-01-31T10:32:45;97965.13;;;5.06
19102;BMP280;9683;49.028;12.064;2023-01-31T10:35:18;97965.97;;;4.98
19102;BMP280;9683;49.028;12.064;2023-01-31T10:37:48;97954.75;;;5.04
19102;BMP280;9683;49.028;12.064;2023-01-31T10:40:18;97960.66;;;5.06
19102;BMP280;9683;49.028;12.064;2023-01-31T10:42:49;97948.31;;;5.07
19102;BMP280;9683;49.028;12.064;2023-01-31T10:45:18;97951.78;;;5.07
19102;BMP280;9683;49.028;12.064;2023-01-31T10:47:49;97939.41;;;5.08
19102;BMP280;9683;49.028;12.064;2023-01-31T10:50:18;97929.38;;;5.03
19102;BMP280;9683;49.028;12.064;2023-01-31T10:52:55;97931.84;;;5.05
19102;BMP280;9683;49.028;12.064;2023-01-31T10:55:37;97923.09;;;5.13
19102;BMP280;9683;49.028;12.064;2023-01-31T10:58:06;97910.38;;;5.16
19102;BMP280;9683;49.028;12.064;2023-01-31T11:00:36;97910.69;;;5.21
19102;BMP280;9683;49.028;12.064;2023-01-31T11:03:03;97902.25;;;5.26
19102;BMP280;9683;49.028;12.064;2023-01-31T11:05:30;97891.34;;;5.29
19102;BMP280;9683;49.028;12.064;2023-01-31T11:07:58;97894.47;;;5.32
19102;BMP280;9683;49.028;12.064;2023-01-31T11:10:28;97889.03;;;5.34
19102;BMP280;9683;49.028;12.064;2023-01-31T11:12:56;97898.75;;;5.33
19102;BMP280;9683;49.028;12.064;2023-01-31T11:15:26;97880.09;;;5.35
19102;BMP280;9683;49.028;12.064;2023-01-31T11:17:56;97890.31;;;5.38
19102;BMP280;9683;49.028;12.064;2023-01-31T11:20:27;97911.75;;;5.35
19102;BMP280;9683;49.028;12.064;2023-01-31T11:22:55;97895.75;;;5.36
19102;BMP280;9683;49.028;12.064;2023-01-31T11:25:24;97876.00;;;5.32
19102;BMP280;9683;49.028;12.064;2023-01-31T11:27:53;97868.09;;;5.32
19102;BMP280;9683;49.028;12.064;2023-01-31T11:30:23;97863.28;;;5.36
19102;BMP280;9683;49.028;12.064;2023-01-31T11:32:50;97871.50;;;5.41
19102;BMP280;9683;49.028;12.064;2023-01-31T11:35:23;97861.41;;;5.44
19102;BMP280;9683;49.028;12.064;2023-01-31T11:37:53;97853.13;;;5.47
19102;BMP280;9683;49.028;12.064;2023-01-31T11:40:26;97837.81;;;5.51
19102;BMP280;9683;49.028;12.064;2023-01-31T11:42:55;97848.09;;;5.61
19102;BMP280;9683;49.028;12.064;2023-01-31T11:45:23;97841.13;;;5.68
19102;BMP280;9683;49.028;12.064;2023-01-31T11:47:53;97842.59;;;5.70
19102;BMP280;9683;49.028;12.064;2023-01-31T11:50:22;97827.88;;;5.76
19102;BMP280;9683;49.028;12.064;2023-01-31T11:52:55;97819.59;;;5.79
19102;BMP280;9683;49.028;12.064;2023-01-31T11:55:22;97819.31;;;5.74
19102;BMP280;9683;49.028;12.064;2023-01-31T11:57:54;97817.13;;;5.77
19102;BMP280;9683;49.028;12.064;2023-01-31T12:00:23;97825.56;;;5.73
19102;BMP280;9683;49.028;12.064;2023-01-31T12:02:57;97815.00;;;5.73
19102;BMP280;9683;49.028;12.064;2023-01-31T12:05:33;97821.94;;;5.74
19102;BMP280;9683;49.028;12.064;2023-01-31T12:08:01;97813.66;;;5.77
19102;BMP280;9683;49.028;12.064;2023-01-31T12:10:33;97818.06;;;5.84
19102;BMP280;9683;49.028;12.064;2023-01-31T12:13:06;97820.88;;;5.83
19102;BMP280;9683;49.028;12.064;2023-01-31T12:15:45;97821.72;;;5.83
19102;BMP280;9683;49.028;12.064;2023-01-31T12:18:20;97828.28;;;5.87
19102;BMP280;9683;49.028;12.064;2023-01-31T12:20:52;97826.28;;;5.89
19102;BMP280;9683;49.028;12.064;2023-01-31T12:23:33;97819.19;;;5.90
19102;BMP280;9683;49.028;12.064;2023-01-31T12:26:08;97824.84;;;5.87
19102;BMP280;9683;49.028;12.064;2023-01-31T12:28:48;97802.63;;;5.73
19102;BMP280;9683;49.028;12.064;2023-01-31T12:31:37;97791.78;;;5.68
19102;BMP280;9683;49.028;12.064;2023-01-31T12:34:26;97814.09;;;5.66
19102;BMP280;9683;49.028;12.064;2023-01-31T12:37:08;97789.06;;;5.62
19102;BMP280;9683;49.028;12.064;2023-01-31T12:39:54;97770.41;;;5.63
19102;BMP280;9683;49.028;12.064;2023-01-31T12:42:34;97774.69;;;5.64
19102;BMP280;9683;49.028;12.064;2023-01-31T12:45:17;97764.41;;;5.69
19102;BMP280;9683;49.028;12.064;2023-01-31T12:48:11;97764.78;;;5.66
19102;BMP280;9683;49.028;12.064;2023-01-31T12:50:46;97752.03;;;5.70
19102;BMP280;9683;49.028;12.064;2023-01-31T12:53:31;97756.69;;;5.68
19102;BMP280;9683;49.028;12.064;2023-01-31T12:56:21;97753.31;;;5.74
19102;BMP280;9683;49.028;12.064;2023-01-31T12:58:57;97753.59;;;5.79
19102;BMP280;9683;49.028;12.064;2023-01-31T13:01:32;97738.75;;;5.78
19102;BMP280;9683;49.028;12.064;2023-01-31T13:04:15;97757.78;;;5.73
19102;BMP280;9683;49.028;12.064;2023-01-31T13:06:48;97740.13;;;5.74
19102;BMP280;9683;49.028;12.064;2023-01-31T13:09:19;97745.13;;;5.69
19102;BMP280;9683;49.028;12.064;2023-01-31T13:11:51;97735.22;;;5.71
19102;BMP280;9683;49.028;12.064;2023-01-31T13:14:22;97739.50;;;5.72
19102;BMP280;9683;49.028;12.064;2023-01-31T13:16:53;97741.13;;;5.73
19102;BMP280;9683;49.028;12.064;2023-01-31T13:19:24;97734.75;;;5.67
19102;BMP280;9683;49.028;12.064;2023-01-31T13:21:55;97731.66;;;5.64
19102;BMP280;9683;49.028;12.064;2023-01-31T13:24:26;97749.13;;;5.65
19102;BMP280;9683;49.028;12.064;2023-01-31T13:26:57;97736.81;;;5.57
19102;BMP280;9683;49.028;12.064;2023-01-31T13:29:29;97732.06;;;5.52
19102;BMP280;9683;49.028;12.064;2023-01-31T13:31:58;97733.88;;;5.52
19102;BMP280;9683;49.028;12.064;2023-01-31T13:34:29;97734.72;;;5.52
19102;BMP280;9683;49.028;12.064;2023-01-31T13:36:58;97732.00;;;5.61
19102;BMP280;9683;49.028;12.064;2023-01-31T13:39:29;97736.44;;;5.60
19102;BMP280;9683;49.028;12.064;2023-01-31T13:41:59;97737.72;;;5.64
19102;BMP280;9683;49.028;12.064;2023-01-31T13:44:26;97746.31;;;5.66
19102;BMP280;9683;49.028;12.064;2023-01-31T13:46:57;97754.50;;;5.71
19102;BMP280;9683;49.028;12.064;2023-01-31T13:49:26;97757.97;;;5.72
19102;BMP280;9683;49.028;12.064;2023-01-31T13:51:55;97733.41;;;5.71
19102;BMP280;9683;49.028;12.064;2023-01-31T13:54:25;97743.13;;;5.71
19102;BMP280;9683;49.028;12.064;2023-01-31T13:56:56;97731.75;;;5.70
19102;BMP280;9683;49.028;12.064;2023-01-31T13:59:26;97731.38;;;5.73
19102;BMP280;9683;49.028;12.064;2023-01-31T14:01:54;97743.75;;;5.73
19102;BMP280;9683;49.028;12.064;2023-01-31T14:04:33;97727.75;;;5.74
19102;BMP280;9683;49.028;12.064;2023-01-31T14:07:21;97716.66;;;5.79
19102;BMP280;9683;49.028;12.064;2023-01-31T14:13:23;97718.94;;;5.82
19102;BMP280;9683;49.028;12.064;2023-01-31T14:15:53;97706.47;;;5.76
19102;BMP280;9683;49.028;12.064;2023-01-31T14:18:40;97703.84;;;5.76
19102;BMP280;9683;49.028;12.064;2023-01-31T14:27:19;97717.09;;;5.82
19102;BMP280;9683;49.028;12.064;2023-01-31T14:29:55;97716.47;;;5.80
19102;BMP280;9683;49.028;12.064;2023-01-31T14:32:29;97714.47;;;5.82
19102;BMP280;9683;49.028;12.064;2023-01-31T14:34:57;97727.66;;;5.82
19102;BMP280;9683;49.028;12.064;2023-01-31T14:37:33;97722.22;;;5.84
19102;BMP280;9683;49.028;12.064;2023-01-31T14:40:21;97714.31;;;5.84
19102;BMP280;9683;49.028;12.064;2023-01-31T14:43:00;97693.81;;;5.86
19102;BMP280;9683;49.028;12.064;2023-01-31T14:45:46;97707.69;;;5.88
19102;BMP280;9683;49.028;12.064;2023-01-31T14:48:28;97705.38;;;5.85
19102;BMP280;9683;49.028;12.064;2023-01-31T14:51:08;97693.66;;;5.87
19102;BMP280;9683;49.028;12.064;2023-01-31T14:53:50;97677.44;;;5.90